createdAt,value
2019-02-22T00:00:16.722Z,9.70
2019-02-22T00:01:16.681Z,9.71
2019-02-22T00:02:16.646Z,9.70
2019-02-22T00:03:16.632Z,9.71
2019-02-22T00:04:16.623Z,9.78
2019-02-22T00:05:16.678Z,9.57
2019-02-22T00:06:16.618Z,9.61
2019-02-22T00:07:16.588Z,9.58
2019-02-22T00:08:16.578Z,9.60
2019-02-22T00:09:16.568Z,9.63
2019-02-22T00:10:16.555Z,9.68
2019-02-22T00:11:16.571Z,9.61
2019-02-22T00:12:16.539Z,9.58
2019-02-22T00:13:16.522Z,9.60
2019-02-22T00:14:16.515Z,9.67
2019-02-22T00:15:16.505Z,9.66
2019-02-22T00:16:16.486Z,9.73
2019-02-22T00:17:16.492Z,9.68
2019-02-22T00:18:16.461Z,9.68
2019-02-22T00:19:16.450Z,9.68
2019-02-22T00:20:16.439Z,9.67
2019-02-22T00:21:16.448Z,9.68
2019-02-22T00:22:16.421Z,9.73
2019-02-22T00:23:16.410Z,9.70
2019-02-22T00:24:16.394Z,9.75
2019-02-22T00:25:16.382Z,9.66
2019-02-22T00:26:16.413Z,9.70
2019-02-22T00:27:16.359Z,9.71
2019-02-22T00:28:16.347Z,9.73
2019-02-22T00:29:16.349Z,9.63
2019-02-22T00:30:16.325Z,9.70
2019-02-22T00:31:16.314Z,9.64
2019-02-22T00:32:16.320Z,9.75
2019-02-22T00:33:16.297Z,9.64
2019-02-22T00:34:16.279Z,9.66
2019-02-22T00:35:16.315Z,9.64
2019-02-22T00:36:16.284Z,9.63
2019-02-22T00:37:16.355Z,9.76
2019-02-22T00:38:16.232Z,9.56
2019-02-22T00:39:16.222Z,9.60
2019-02-22T00:40:16.212Z,9.68
2019-02-22T00:41:16.200Z,9.75
2019-02-22T00:42:16.209Z,9.67
2019-02-22T00:43:16.177Z,9.70
2019-02-22T00:44:16.167Z,9.63
2019-02-22T00:45:16.156Z,9.61
2019-02-22T00:46:16.141Z,9.63
2019-02-22T00:47:16.151Z,9.68
2019-02-22T00:48:16.125Z,9.66
2019-02-22T00:49:16.109Z,9.66
2019-02-22T00:50:16.096Z,9.67
2019-02-22T00:51:16.086Z,9.63
2019-02-22T00:52:16.098Z,9.56
2019-02-22T00:53:16.064Z,9.48
2019-02-22T00:54:16.062Z,9.60
2019-02-22T00:55:16.042Z,9.61
2019-02-22T00:56:16.026Z,9.56
2019-02-22T00:57:16.023Z,9.58
2019-02-22T00:58:16.033Z,9.64
2019-02-22T00:59:16.000Z,9.60
2019-02-22T01:00:15.986Z,9.57
2019-02-22T01:01:15.983Z,9.58
2019-02-22T01:02:15.961Z,9.61
2019-02-22T01:03:15.967Z,9.50
2019-02-22T01:04:15.938Z,9.57
2019-02-22T01:05:15.927Z,9.50
2019-02-22T01:06:15.925Z,9.56
2019-02-22T01:07:15.903Z,9.48
2019-02-22T01:08:15.983Z,9.56
2019-02-22T01:09:15.884Z,9.60
2019-02-22T01:10:15.870Z,9.61
2019-02-22T01:11:15.856Z,9.50
2019-02-22T01:12:15.859Z,9.46
2019-02-22T01:13:15.852Z,9.48
2019-02-22T01:14:15.824Z,9.50
2019-02-22T01:15:15.811Z,9.56
2019-02-22T01:16:15.802Z,9.57
2019-02-22T01:17:15.789Z,9.45
2019-02-22T01:18:15.803Z,9.63
2019-02-22T01:19:15.768Z,9.56
2019-02-22T01:20:15.755Z,9.58
2019-02-22T01:21:15.744Z,9.49
2019-02-22T01:22:15.735Z,9.61
2019-02-22T01:23:15.721Z,9.53
2019-02-22T01:24:15.728Z,9.50
2019-02-22T01:25:15.697Z,9.48
2019-02-22T01:26:15.691Z,9.49
2019-02-22T01:27:15.679Z,9.50
2019-02-22T01:28:15.668Z,9.46
2019-02-22T01:29:15.675Z,9.52
2019-02-22T01:30:15.670Z,9.46
2019-02-22T01:31:15.629Z,9.46
2019-02-22T01:32:15.625Z,9.58
2019-02-22T01:33:15.606Z,9.48
2019-02-22T01:34:15.614Z,9.53
2019-02-22T01:35:15.583Z,9.53
2019-02-22T01:36:15.572Z,9.56
2019-02-22T01:37:15.561Z,9.50
2019-02-22T01:38:15.550Z,9.52
2019-02-22T01:39:15.560Z,9.57
2019-02-22T01:40:15.529Z,9.49
2019-02-22T01:41:15.514Z,9.46
2019-02-22T01:42:15.503Z,9.52
2019-02-22T01:43:15.492Z,9.46
2019-02-22T01:44:15.480Z,9.61
2019-02-22T01:45:15.487Z,9.58
2019-02-22T01:46:15.457Z,9.49
2019-02-22T01:47:15.446Z,9.50
2019-02-22T01:48:15.435Z,9.50
2019-02-22T01:49:15.423Z,9.50
2019-02-22T01:50:15.431Z,9.48
2019-02-22T01:51:15.402Z,9.58
2019-02-22T01:52:15.387Z,9.49
2019-02-22T01:53:15.376Z,9.46
2019-02-22T01:54:15.367Z,9.45
2019-02-22T01:55:15.372Z,9.52
2019-02-22T01:56:15.342Z,9.50
2019-02-22T01:57:15.330Z,9.49
2019-02-22T01:58:15.320Z,9.50
2019-02-22T01:59:15.307Z,9.49
2019-02-22T02:00:15.321Z,9.58
2019-02-22T02:01:15.285Z,9.45
2019-02-22T02:02:15.271Z,9.57
2019-02-22T02:03:15.260Z,9.50
2019-02-22T02:04:15.253Z,9.49
2019-02-22T02:05:15.258Z,9.57
2019-02-22T02:06:15.231Z,9.45
2019-02-22T02:07:15.218Z,9.52
2019-02-22T02:08:15.204Z,9.56
2019-02-22T02:09:15.237Z,9.50
2019-02-22T02:10:15.212Z,9.49
2019-02-22T02:11:15.172Z,9.50
2019-02-22T02:12:15.158Z,9.46
2019-02-22T02:13:15.146Z,9.48
2019-02-22T02:14:15.136Z,9.49
2019-02-22T02:15:15.129Z,9.56
2019-02-22T02:16:15.135Z,9.52
2019-02-22T02:17:17.614Z,9.53
2019-02-22T02:18:15.093Z,9.52
2019-02-22T02:19:15.078Z,9.60
2019-02-22T02:20:15.422Z,9.58
2019-02-22T02:21:15.107Z,9.48
2019-02-22T02:22:15.050Z,9.49
2019-02-22T02:23:15.034Z,9.49
2019-02-22T02:24:15.023Z,9.61
2019-02-22T02:25:15.011Z,9.52
2019-02-22T02:26:15.017Z,9.52
2019-02-22T02:27:14.988Z,9.56
2019-02-22T02:28:14.979Z,9.45
2019-02-22T02:29:14.965Z,9.53
2019-02-22T02:30:14.954Z,9.53
2019-02-22T02:31:14.961Z,9.52
2019-02-22T02:32:14.935Z,9.50
2019-02-22T02:33:14.926Z,9.45
2019-02-22T02:34:14.910Z,9.50
2019-02-22T02:35:14.895Z,9.53
2019-02-22T02:36:14.905Z,9.48
2019-02-22T02:37:14.892Z,9.53
2019-02-22T02:38:14.862Z,9.53
2019-02-22T02:39:14.848Z,9.52
2019-02-22T02:40:14.841Z,9.60
2019-02-22T02:41:14.831Z,9.50
2019-02-22T02:42:14.834Z,9.61
2019-02-22T02:43:14.815Z,9.53
2019-02-22T02:44:14.793Z,9.57
2019-02-22T02:45:14.783Z,9.53
2019-02-22T02:46:14.771Z,9.48
2019-02-22T02:47:14.776Z,9.52
2019-02-22T02:48:14.764Z,9.53
2019-02-22T02:49:14.741Z,9.43
2019-02-22T02:50:14.727Z,9.57
2019-02-22T02:51:14.719Z,9.53
2019-02-22T02:52:14.728Z,9.58
2019-02-22T02:53:14.696Z,9.52
2019-02-22T02:54:14.678Z,9.53
2019-02-22T02:55:14.669Z,9.58
2019-02-22T02:56:14.665Z,9.52
2019-02-22T02:57:14.645Z,9.43
2019-02-22T02:58:14.655Z,9.52
2019-02-22T02:59:14.627Z,9.46
2019-02-22T03:00:14.614Z,9.52
2019-02-22T03:01:14.604Z,9.57
2019-02-22T03:02:14.594Z,9.53
2019-02-22T03:03:14.597Z,9.56
2019-02-22T03:04:14.563Z,9.49
2019-02-22T03:05:14.556Z,9.56
2019-02-22T03:06:14.552Z,9.56
2019-02-22T03:07:14.533Z,9.50
2019-02-22T03:08:14.538Z,9.48
2019-02-22T03:09:14.507Z,9.57
2019-02-22T03:10:14.522Z,9.56
2019-02-22T03:11:20.748Z,9.50
2019-02-22T03:12:15.477Z,9.56
2019-02-22T03:13:14.481Z,9.53
2019-02-22T03:14:14.449Z,9.53
2019-02-22T03:15:14.440Z,9.48
2019-02-22T03:16:14.436Z,9.49
2019-02-22T03:17:14.416Z,9.48
2019-02-22T03:18:14.425Z,9.45
2019-02-22T03:19:14.393Z,9.50
2019-02-22T03:20:14.382Z,9.49
2019-02-22T03:21:14.371Z,9.49
2019-02-22T03:22:14.364Z,9.52
2019-02-22T03:23:14.371Z,9.46
2019-02-22T03:24:14.340Z,9.45
2019-02-22T03:25:14.327Z,9.45
2019-02-22T03:26:14.316Z,9.49
2019-02-22T03:27:14.302Z,9.53
2019-02-22T03:28:14.313Z,9.52
2019-02-22T03:29:14.293Z,9.52
2019-02-22T03:30:14.281Z,9.49
2019-02-22T03:31:14.260Z,9.56
2019-02-22T03:32:14.270Z,9.53
2019-02-22T03:33:14.271Z,9.53
2019-02-22T03:34:14.224Z,9.49
2019-02-22T03:35:14.210Z,9.56
2019-02-22T03:36:14.199Z,9.50
2019-02-22T03:37:14.189Z,9.46
2019-02-22T03:38:14.178Z,9.49
2019-02-22T03:39:14.190Z,9.57
2019-02-22T03:40:14.154Z,9.53
2019-02-22T03:41:14.141Z,9.53
2019-02-22T03:42:14.130Z,9.43
2019-02-22T03:43:14.120Z,9.52
2019-02-22T03:44:14.129Z,9.56
2019-02-22T03:45:14.102Z,9.52
2019-02-22T03:46:14.085Z,9.50
2019-02-22T03:47:14.072Z,9.53
2019-02-22T03:48:14.064Z,9.64
2019-02-22T03:49:14.072Z,9.50
2019-02-22T03:50:14.041Z,9.52
2019-02-22T03:51:14.028Z,9.53
2019-02-22T03:52:14.018Z,9.66
2019-02-22T03:53:14.008Z,9.61
2019-02-22T03:54:14.016Z,9.56
2019-02-22T03:55:13.986Z,9.56
2019-02-22T03:56:13.975Z,9.60
2019-02-22T03:57:13.963Z,9.64
2019-02-22T03:58:13.948Z,9.64
2019-02-22T03:59:13.936Z,9.58
2019-02-22T04:00:13.942Z,9.57
2019-02-22T04:01:13.917Z,9.53
2019-02-22T04:02:13.905Z,9.57
2019-02-22T04:03:13.892Z,9.58
2019-02-22T04:04:13.889Z,9.56
2019-02-22T04:05:13.889Z,9.58
2019-02-22T04:06:13.859Z,9.56
2019-02-22T04:07:13.847Z,9.58
2019-02-22T04:08:13.835Z,9.50
2019-02-22T04:09:13.834Z,9.50
2019-02-22T04:10:13.831Z,9.58
2019-02-22T04:11:13.802Z,9.60
2019-02-22T04:12:13.787Z,9.57
2019-02-22T04:13:13.777Z,9.61
2019-02-22T04:14:13.769Z,9.63
2019-02-22T04:15:13.780Z,9.58
2019-02-22T04:16:13.743Z,9.57
2019-02-22T04:17:13.732Z,9.68
2019-02-22T04:18:13.719Z,9.60
2019-02-22T04:19:13.711Z,9.64
2019-02-22T04:20:13.712Z,9.58
2019-02-22T04:21:13.706Z,9.63
2019-02-22T04:22:13.672Z,9.60
2019-02-22T04:23:13.662Z,9.63
2019-02-22T04:24:13.652Z,9.53
2019-02-22T04:25:13.640Z,9.61
2019-02-22T04:26:13.645Z,9.53
2019-02-22T04:27:13.618Z,9.56
2019-02-22T04:28:13.620Z,9.57
2019-02-22T04:29:13.594Z,9.57
2019-02-22T04:30:13.734Z,9.61
2019-02-22T04:31:13.589Z,9.46
2019-02-22T04:32:13.564Z,9.57
2019-02-22T04:33:13.565Z,9.58
2019-02-22T04:34:13.535Z,9.53
2019-02-22T04:35:13.527Z,9.60
2019-02-22T04:36:13.534Z,9.66
2019-02-22T04:37:13.506Z,9.58
2019-02-22T04:38:13.490Z,9.60
2019-02-22T04:39:13.482Z,9.58
2019-02-22T04:40:13.470Z,9.53
2019-02-22T04:41:13.456Z,9.53
2019-02-22T04:42:13.465Z,9.60
2019-02-22T04:43:13.431Z,9.52
2019-02-22T04:44:13.420Z,9.49
2019-02-22T04:45:13.412Z,9.57
2019-02-22T04:46:13.416Z,9.50
2019-02-22T04:47:13.386Z,9.53
2019-02-22T04:48:13.381Z,9.42
2019-02-22T04:49:13.365Z,9.53
2019-02-22T04:50:13.362Z,9.50
2019-02-22T04:51:13.361Z,9.45
2019-02-22T04:52:13.332Z,9.52
2019-02-22T04:53:13.323Z,9.50
2019-02-22T04:54:13.309Z,9.52
2019-02-22T04:55:13.300Z,9.52
2019-02-22T04:56:13.307Z,9.48
2019-02-22T04:57:13.274Z,9.56
2019-02-22T04:58:13.263Z,9.49
2019-02-22T04:59:13.253Z,9.52
2019-02-22T05:00:13.238Z,9.60
2019-02-22T05:01:13.253Z,9.48
2019-02-22T05:02:13.213Z,9.52
2019-02-22T05:03:13.205Z,9.58
2019-02-22T05:04:13.194Z,9.53
2019-02-22T05:05:13.184Z,9.48
2019-02-22T05:06:13.193Z,9.58
2019-02-22T05:07:13.161Z,9.52
2019-02-22T05:08:13.146Z,9.43
2019-02-22T05:09:13.140Z,9.53
2019-02-22T05:10:13.125Z,9.53
2019-02-22T05:11:13.113Z,9.43
2019-02-22T05:12:13.123Z,9.58
2019-02-22T05:13:13.090Z,9.45
2019-02-22T05:14:13.080Z,9.53
2019-02-22T05:15:13.181Z,9.57
2019-02-22T05:16:13.056Z,9.53
2019-02-22T05:17:13.068Z,9.56
2019-02-22T05:18:13.034Z,9.56
2019-02-22T05:19:13.024Z,9.56
2019-02-22T05:20:13.010Z,9.52
2019-02-22T05:21:13.046Z,9.52
2019-02-22T05:22:13.006Z,9.56
2019-02-22T05:23:12.979Z,9.52
2019-02-22T05:24:12.973Z,9.53
2019-02-22T05:25:12.953Z,9.53
2019-02-22T05:26:12.942Z,9.49
2019-02-22T05:27:12.956Z,9.49
2019-02-22T05:28:12.922Z,9.43
2019-02-22T05:29:12.911Z,9.48
2019-02-22T05:30:12.899Z,9.43
2019-02-22T05:31:12.892Z,9.46
2019-02-22T05:32:12.872Z,9.50
2019-02-22T05:33:12.882Z,9.57
2019-02-22T05:34:12.857Z,9.43
2019-02-22T05:35:12.840Z,9.61
2019-02-22T05:36:12.828Z,9.56
2019-02-22T05:37:12.821Z,9.53
2019-02-22T05:38:12.824Z,9.60
2019-02-22T05:39:18.968Z,9.57
2019-02-22T05:40:13.781Z,9.50
2019-02-22T05:41:12.772Z,9.60
2019-02-22T05:42:22.468Z,9.56
2019-02-22T05:43:13.767Z,9.56
2019-02-22T05:44:12.736Z,9.60
2019-02-22T05:45:12.724Z,9.53
2019-02-22T05:46:12.712Z,9.53
2019-02-22T05:47:12.703Z,9.49
2019-02-22T05:48:12.714Z,9.45
2019-02-22T05:49:12.840Z,9.56
2019-02-22T05:50:12.669Z,9.56
2019-02-22T05:51:12.659Z,9.49
2019-02-22T05:52:12.645Z,9.43
2019-02-22T05:53:12.632Z,9.49
2019-02-22T05:54:12.642Z,9.48
2019-02-22T05:55:12.612Z,9.53
2019-02-22T05:56:12.603Z,9.56
2019-02-22T05:57:14.325Z,9.57
2019-02-22T05:58:12.579Z,9.50
2019-02-22T05:59:12.583Z,9.52
2019-02-22T06:00:12.554Z,9.56
2019-02-22T06:01:12.553Z,9.52
2019-02-22T06:02:14.579Z,9.49
2019-02-22T06:03:12.520Z,9.49
2019-02-22T06:04:12.528Z,9.50
2019-02-22T06:05:12.495Z,9.48
2019-02-22T06:06:12.488Z,9.53
2019-02-22T06:07:14.579Z,9.53
2019-02-22T06:08:12.469Z,9.53
2019-02-22T06:09:12.469Z,9.52
2019-02-22T06:10:12.441Z,9.49
2019-02-22T06:11:12.449Z,9.56
2019-02-22T06:12:12.414Z,9.61
2019-02-22T06:13:12.403Z,9.49
2019-02-22T06:14:12.415Z,9.46
2019-02-22T06:15:12.383Z,9.53
2019-02-22T06:16:12.372Z,9.53
2019-02-22T06:17:14.814Z,9.43
2019-02-22T06:18:12.348Z,9.46
2019-02-22T06:19:12.337Z,9.53
2019-02-22T06:20:12.345Z,9.46
2019-02-22T06:21:14.567Z,9.46
2019-02-22T06:22:12.304Z,9.45
2019-02-22T06:23:12.293Z,9.46
2019-02-22T06:24:12.279Z,9.53
2019-02-22T06:25:12.297Z,9.60
2019-02-22T06:26:12.254Z,9.63
2019-02-22T06:27:12.246Z,9.45
2019-02-22T06:28:12.242Z,9.48
2019-02-22T06:29:12.221Z,9.60
2019-02-22T06:30:12.226Z,9.56
2019-02-22T06:31:12.204Z,9.57
2019-02-22T06:32:12.191Z,9.52
2019-02-22T06:33:12.177Z,9.53
2019-02-22T06:34:12.166Z,9.64
2019-02-22T06:35:12.192Z,9.56
2019-02-22T06:36:12.142Z,9.63
2019-02-22T06:37:12.128Z,9.61
2019-02-22T06:38:12.118Z,9.58
2019-02-22T06:39:12.110Z,9.66
2019-02-22T06:40:12.096Z,9.57
2019-02-22T06:41:12.101Z,9.50
2019-02-22T06:42:12.072Z,9.63
2019-02-22T06:43:12.061Z,9.67
2019-02-22T06:44:12.092Z,9.56
2019-02-22T06:45:12.038Z,9.57
2019-02-22T06:46:12.047Z,9.68
2019-02-22T06:47:12.017Z,9.60
2019-02-22T06:48:12.009Z,9.61
2019-02-22T06:49:11.996Z,9.46
2019-02-22T06:50:11.978Z,9.60
2019-02-22T06:51:11.991Z,9.61
2019-02-22T06:52:11.957Z,9.48
2019-02-22T06:53:11.945Z,9.63
2019-02-22T06:54:11.934Z,9.56
2019-02-22T06:55:11.923Z,9.66
2019-02-22T06:56:11.911Z,9.61
2019-02-22T06:57:11.918Z,9.64
2019-02-22T06:58:11.922Z,9.61
2019-02-22T06:59:11.876Z,9.64
2019-02-22T07:00:11.869Z,9.63
2019-02-22T07:01:11.854Z,9.67
2019-02-22T07:02:11.860Z,9.60
2019-02-22T07:03:11.831Z,9.67
2019-02-22T07:04:11.819Z,9.67
2019-02-22T07:05:11.810Z,9.71
2019-02-22T07:06:11.797Z,9.61
2019-02-22T07:07:11.804Z,9.68
2019-02-22T07:08:11.773Z,9.61
2019-02-22T07:09:11.760Z,9.71
2019-02-22T07:10:11.751Z,9.71
2019-02-22T07:11:11.741Z,9.78
2019-02-22T07:12:11.749Z,9.64
2019-02-22T07:13:11.717Z,9.61
2019-02-22T07:14:11.705Z,9.76
2019-02-22T07:15:11.697Z,9.79
2019-02-22T07:16:11.686Z,9.78
2019-02-22T07:17:11.690Z,9.79
2019-02-22T07:18:11.658Z,9.75
2019-02-22T07:19:11.649Z,9.78
2019-02-22T07:20:11.638Z,9.75
2019-02-22T07:21:11.626Z,9.75
2019-02-22T07:22:11.632Z,9.76
2019-02-22T07:23:11.603Z,9.91
2019-02-22T07:24:11.592Z,9.88
2019-02-22T07:25:11.580Z,9.81
2019-02-22T07:26:11.570Z,9.83
2019-02-22T07:27:11.576Z,9.68
2019-02-22T07:28:11.547Z,9.78
2019-02-22T07:29:11.535Z,9.75
2019-02-22T07:30:11.539Z,9.79
2019-02-22T07:31:11.510Z,9.76
2019-02-22T07:32:11.525Z,9.79
2019-02-22T07:33:11.489Z,9.81
2019-02-22T07:34:11.478Z,9.99
2019-02-22T07:35:14.042Z,9.89
2019-02-22T07:36:11.456Z,9.93
2019-02-22T07:37:11.449Z,9.96
2019-02-22T07:38:11.453Z,9.93
2019-02-22T07:39:11.423Z,9.93
2019-02-22T07:40:11.409Z,10.06
2019-02-22T07:41:11.399Z,10.14
2019-02-22T07:42:11.384Z,10.09
2019-02-22T07:43:11.398Z,10.17
2019-02-22T07:44:11.365Z,10.17
2019-02-22T07:45:11.353Z,10.07
2019-02-22T07:46:11.341Z,10.10
2019-02-22T07:47:11.336Z,10.17
2019-02-22T07:48:11.361Z,10.09
2019-02-22T07:49:11.306Z,10.24
2019-02-22T07:50:11.381Z,10.12
2019-02-22T07:51:11.305Z,10.28
2019-02-22T07:52:11.271Z,10.21
2019-02-22T07:53:11.257Z,10.32
2019-02-22T07:54:11.273Z,10.32
2019-02-22T07:55:11.234Z,10.32
2019-02-22T07:56:11.278Z,10.32
2019-02-22T07:57:11.215Z,10.33
2019-02-22T07:58:11.203Z,10.30
2019-02-22T07:59:11.208Z,10.32
2019-02-22T08:00:11.176Z,10.37
2019-02-22T08:01:11.166Z,10.44
2019-02-22T08:02:11.153Z,10.47
2019-02-22T08:03:11.142Z,10.56
2019-02-22T08:04:11.170Z,10.59
2019-02-22T08:05:11.120Z,10.62
2019-02-22T08:06:11.107Z,10.60
2019-02-22T08:07:11.094Z,10.66
2019-02-22T08:08:11.082Z,10.65
2019-02-22T08:09:11.071Z,10.65
2019-02-22T08:10:11.077Z,10.68
2019-02-22T08:11:11.049Z,10.76
2019-02-22T08:12:11.036Z,10.77
2019-02-22T08:13:19.104Z,10.81
2019-02-22T08:14:12.013Z,10.74
2019-02-22T08:15:11.054Z,10.84
2019-02-22T08:16:10.998Z,10.83
2019-02-22T08:17:10.977Z,10.73
2019-02-22T08:18:10.972Z,10.76
2019-02-22T08:19:11.354Z,10.77
2019-02-22T08:20:10.960Z,10.81
2019-02-22T08:21:10.932Z,10.84
2019-02-22T08:22:10.919Z,10.77
2019-02-22T08:23:10.908Z,10.76
2019-02-22T08:24:10.898Z,10.84
2019-02-22T08:25:10.903Z,10.81
2019-02-22T08:26:10.874Z,10.80
2019-02-22T08:27:10.863Z,10.80
2019-02-22T08:28:10.851Z,10.76
2019-02-22T08:29:10.839Z,10.91
2019-02-22T08:30:10.846Z,10.77
2019-02-22T08:31:10.814Z,10.74
2019-02-22T08:32:10.805Z,10.81
2019-02-22T08:33:10.796Z,10.77
2019-02-22T08:34:10.780Z,10.83
2019-02-22T08:35:10.789Z,10.92
2019-02-22T08:36:10.760Z,10.86
2019-02-22T08:37:10.747Z,10.86
2019-02-22T08:38:10.731Z,10.84
2019-02-22T08:39:10.720Z,10.95
2019-02-22T08:40:10.732Z,11.06
2019-02-22T08:41:10.697Z,11.10
2019-02-22T08:42:10.690Z,11.25
2019-02-22T08:43:10.677Z,11.28
2019-02-22T08:44:10.666Z,11.25
2019-02-22T08:45:10.771Z,11.20
2019-02-22T08:46:10.639Z,11.31
2019-02-22T08:47:10.628Z,11.34
2019-02-22T08:48:10.621Z,11.46
2019-02-22T08:49:10.607Z,11.53
2019-02-22T08:50:10.594Z,11.47
2019-02-22T08:51:10.600Z,11.41
2019-02-22T08:52:10.571Z,11.35
2019-02-22T08:53:10.557Z,11.29
2019-02-22T08:54:10.546Z,11.25
2019-02-22T08:55:10.545Z,11.39
2019-02-22T08:56:10.540Z,11.32
2019-02-22T08:57:10.513Z,11.35
2019-02-22T08:58:10.500Z,11.43
2019-02-22T08:59:10.493Z,11.32
2019-02-22T09:00:10.480Z,11.39
2019-02-22T09:01:10.488Z,11.43
2019-02-22T09:02:10.452Z,11.32
2019-02-22T09:03:10.440Z,11.52
2019-02-22T09:04:10.430Z,11.52
2019-02-22T09:05:10.422Z,11.52
2019-02-22T09:06:10.412Z,11.64
2019-02-22T09:07:10.413Z,11.62
2019-02-22T09:08:10.387Z,11.68
2019-02-22T09:09:10.384Z,11.71
2019-02-22T09:10:10.370Z,11.64
2019-02-22T09:11:10.354Z,11.56
2019-02-22T09:12:10.354Z,11.64
2019-02-22T09:13:10.326Z,11.72
2019-02-22T09:14:10.316Z,11.72
2019-02-22T09:15:10.306Z,11.86
2019-02-22T09:16:10.290Z,11.85
2019-02-22T09:17:10.299Z,11.96
2019-02-22T09:18:10.268Z,12.02
2019-02-22T09:19:10.254Z,12.01
2019-02-22T09:20:10.245Z,12.02
2019-02-22T09:21:10.231Z,12.05
2019-02-22T09:22:19.682Z,12.09
2019-02-22T09:23:11.210Z,12.23
2019-02-22T09:24:10.197Z,12.30
2019-02-22T09:25:10.187Z,12.34
2019-02-22T09:26:10.177Z,12.45
2019-02-22T09:27:10.162Z,12.34
2019-02-22T09:28:10.179Z,12.34
2019-02-22T09:29:10.139Z,12.39
2019-02-22T09:30:10.130Z,12.46
2019-02-22T09:31:10.117Z,12.64
2019-02-22T09:32:10.106Z,12.67
2019-02-22T09:33:10.111Z,12.78
2019-02-22T09:34:10.084Z,12.81
2019-02-22T09:35:10.070Z,13.07
2019-02-22T09:36:10.061Z,13.43
2019-02-22T09:37:10.057Z,13.49
2019-02-22T09:38:10.057Z,13.62
2019-02-22T09:39:10.026Z,13.56
2019-02-22T09:40:10.015Z,13.56
2019-02-22T09:41:10.002Z,13.91
2019-02-22T09:42:09.992Z,14.34
2019-02-22T09:43:10.006Z,14.61
2019-02-22T09:44:09.967Z,14.69
2019-02-22T09:45:09.955Z,14.98
2019-02-22T09:46:09.943Z,15.48
2019-02-22T09:47:09.931Z,16.70
2019-02-22T09:48:09.942Z,16.93
2019-02-22T09:49:09.909Z,18.68
2019-02-22T09:50:09.896Z,20.03
2019-02-22T09:51:09.885Z,21.21
2019-02-22T09:52:09.875Z,21.48
2019-02-22T09:53:09.883Z,21.92
2019-02-22T09:54:09.854Z,21.66
2019-02-22T09:55:09.849Z,21.61
2019-02-22T09:56:09.829Z,22.14
2019-02-22T09:57:09.821Z,23.24
2019-02-22T09:58:09.831Z,23.43
2019-02-22T09:59:09.794Z,22.71
2019-02-22T10:00:09.788Z,22.13
2019-02-22T10:01:09.771Z,22.62
2019-02-22T10:02:09.780Z,23.68
2019-02-22T10:03:09.749Z,23.31
2019-02-22T10:04:09.757Z,22.53
2019-02-22T10:05:09.728Z,21.44
2019-02-22T10:06:09.714Z,20.96
2019-02-22T10:07:09.703Z,20.25
2019-02-22T10:08:09.719Z,20.86
2019-02-22T10:09:09.680Z,21.48
2019-02-22T10:10:09.670Z,21.94
2019-02-22T10:11:09.659Z,22.78
2019-02-22T10:12:09.649Z,24.00
2019-02-22T10:13:09.637Z,25.06
2019-02-22T10:14:09.649Z,25.00
2019-02-22T10:15:09.615Z,23.61
2019-02-22T10:16:09.604Z,23.49
2019-02-22T10:17:09.592Z,23.50
2019-02-22T10:18:09.591Z,23.46
2019-02-22T10:19:09.592Z,23.02
2019-02-22T10:20:09.557Z,22.50
2019-02-22T10:21:09.547Z,21.94
2019-02-22T10:22:09.540Z,21.34
2019-02-22T10:23:09.553Z,20.83
2019-02-22T10:24:09.528Z,20.08
2019-02-22T10:25:09.500Z,19.63
2019-02-22T10:26:09.486Z,19.35
2019-02-22T10:27:12.004Z,19.23
2019-02-22T10:28:17.230Z,19.17
2019-02-22T10:29:10.472Z,19.10
2019-02-22T10:30:09.442Z,18.86
2019-02-22T10:31:09.431Z,18.86
2019-02-22T10:32:09.421Z,18.43
2019-02-22T10:33:09.406Z,18.00
2019-02-22T10:34:09.398Z,17.94
2019-02-22T10:35:09.403Z,17.71
2019-02-22T10:36:09.374Z,17.81
2019-02-22T10:37:09.362Z,17.92
2019-02-22T10:38:09.352Z,18.37
2019-02-22T10:39:09.340Z,18.24
2019-02-22T10:40:09.348Z,17.95
2019-02-22T10:41:09.316Z,18.21
2019-02-22T10:42:09.303Z,18.74
2019-02-22T10:43:09.292Z,19.14
2019-02-22T10:44:17.420Z,19.39
2019-02-22T10:45:10.590Z,19.88
2019-02-22T10:46:09.256Z,20.20
2019-02-22T10:47:09.245Z,21.23
2019-02-22T10:48:09.235Z,20.95
2019-02-22T10:49:09.221Z,20.93
2019-02-22T10:50:09.215Z,21.75
2019-02-22T10:51:09.219Z,22.38
2019-02-22T10:52:09.187Z,23.45
2019-02-22T10:53:09.174Z,24.38
2019-02-22T10:54:09.163Z,24.41
2019-02-22T10:55:09.154Z,24.04
2019-02-22T10:56:09.159Z,24.60
2019-02-22T10:57:09.127Z,23.97
2019-02-22T10:58:09.118Z,23.92
2019-02-22T10:59:09.108Z,24.85
2019-02-22T11:00:09.094Z,25.46
2019-02-22T11:01:09.109Z,25.62
2019-02-22T11:02:09.077Z,25.80
2019-02-22T11:03:09.060Z,26.11
2019-02-22T11:04:09.052Z,26.01
2019-02-22T11:05:09.044Z,24.87
2019-02-22T11:06:09.068Z,23.60
2019-02-22T11:07:09.023Z,22.64
2019-02-22T11:08:09.010Z,21.99
2019-02-22T11:09:08.999Z,21.48
2019-02-22T11:10:08.982Z,20.80
2019-02-22T11:11:08.972Z,20.21
2019-02-22T11:12:08.976Z,20.03
2019-02-22T11:13:08.947Z,19.84
2019-02-22T11:14:08.936Z,18.72
2019-02-22T11:15:08.925Z,17.91
2019-02-22T11:16:08.932Z,17.62
2019-02-22T11:17:08.906Z,17.33
2019-02-22T11:18:08.893Z,17.23
2019-02-22T11:19:08.879Z,16.95
2019-02-22T11:20:08.867Z,16.98
2019-02-22T11:21:08.875Z,17.13
2019-02-22T11:22:08.846Z,17.03
2019-02-22T11:23:08.834Z,16.99
2019-02-22T11:24:08.824Z,16.65
2019-02-22T11:25:08.812Z,16.48
2019-02-22T11:26:08.818Z,16.27
2019-02-22T11:27:08.787Z,16.22
2019-02-22T11:28:08.776Z,16.06
2019-02-22T11:29:08.769Z,16.23
2019-02-22T11:30:08.755Z,16.11
2019-02-22T11:31:08.791Z,16.00
2019-02-22T11:32:08.733Z,15.33
2019-02-22T11:33:08.723Z,15.15
2019-02-22T11:34:08.710Z,15.03
2019-02-22T11:35:08.701Z,14.88
2019-02-22T11:36:08.684Z,14.81
2019-02-22T11:37:08.695Z,14.88
2019-02-22T11:38:08.659Z,14.91
2019-02-22T11:39:08.649Z,14.69
2019-02-22T11:40:08.637Z,14.67
2019-02-22T11:41:08.625Z,14.64
2019-02-22T11:42:08.633Z,14.52
2019-02-22T11:43:08.608Z,14.60
2019-02-22T11:44:08.591Z,14.38
2019-02-22T11:45:08.602Z,14.52
2019-02-22T11:46:08.568Z,14.44
2019-02-22T11:47:08.583Z,14.46
2019-02-22T11:48:09.525Z,14.38
2019-02-22T11:49:08.534Z,14.44
2019-02-22T11:50:08.523Z,14.62
2019-02-22T11:51:08.601Z,14.74
2019-02-22T11:52:08.511Z,14.67
2019-02-22T11:53:08.508Z,14.71
2019-02-22T11:54:08.476Z,14.86
2019-02-22T11:55:08.470Z,14.91
2019-02-22T11:56:08.453Z,14.71
2019-02-22T11:57:08.450Z,14.53
2019-02-22T11:58:08.448Z,14.39
2019-02-22T11:59:08.431Z,14.44
2019-02-22T12:00:08.412Z,14.44
2019-02-22T12:01:08.408Z,14.29
2019-02-22T12:02:08.386Z,14.32
2019-02-22T12:03:21.239Z,14.20
2019-02-22T12:04:09.361Z,14.14
2019-02-22T12:05:08.350Z,13.98
2019-02-22T12:06:08.337Z,13.96
2019-02-22T12:07:08.337Z,14.06
2019-02-22T12:08:08.316Z,13.83
2019-02-22T12:09:08.323Z,13.46
2019-02-22T12:10:08.294Z,13.30
2019-02-22T12:11:08.283Z,13.30
2019-02-22T12:12:08.269Z,13.30
2019-02-22T12:13:08.266Z,13.33
2019-02-22T12:14:08.264Z,13.46
2019-02-22T12:15:08.231Z,13.52
2019-02-22T12:16:08.222Z,13.52
2019-02-22T12:17:08.209Z,13.47
2019-02-22T12:18:08.200Z,13.55
2019-02-22T12:19:08.207Z,13.44
2019-02-22T12:20:08.175Z,13.43
2019-02-22T12:21:08.167Z,13.38
2019-02-22T12:22:08.154Z,13.38
2019-02-22T12:23:08.143Z,13.33
2019-02-22T12:24:08.261Z,13.29
2019-02-22T12:25:08.120Z,13.40
2019-02-22T12:26:08.151Z,13.52
2019-02-22T12:27:08.093Z,13.47
2019-02-22T12:28:08.083Z,13.46
2019-02-22T12:29:08.088Z,13.46
2019-02-22T12:30:08.059Z,13.55
2019-02-22T12:31:08.048Z,13.49
2019-02-22T12:32:08.165Z,13.51
2019-02-22T12:33:08.023Z,13.52
2019-02-22T12:34:08.031Z,13.51
2019-02-22T12:35:08.003Z,13.37
2019-02-22T12:36:09.634Z,13.47
2019-02-22T12:37:08.020Z,13.62
2019-02-22T12:38:07.966Z,13.70
2019-02-22T12:39:07.976Z,13.81
2019-02-22T12:40:07.945Z,13.98
2019-02-22T12:41:07.933Z,14.14
2019-02-22T12:42:07.921Z,14.27
2019-02-22T12:43:07.908Z,14.50
2019-02-22T12:44:07.936Z,14.71
2019-02-22T12:45:07.884Z,14.94
2019-02-22T12:46:07.872Z,15.09
2019-02-22T12:47:07.890Z,15.33
2019-02-22T12:48:07.858Z,15.17
2019-02-22T12:49:07.837Z,15.24
2019-02-22T12:50:07.843Z,15.06
2019-02-22T12:51:07.813Z,15.36
2019-02-22T12:52:07.804Z,15.54
2019-02-22T12:53:07.791Z,16.01
2019-02-22T12:54:07.777Z,16.38
2019-02-22T12:55:07.897Z,16.59
2019-02-22T12:56:07.763Z,16.88
2019-02-22T12:57:07.750Z,16.89
2019-02-22T12:58:14.765Z,16.90
2019-02-22T12:59:07.743Z,16.90
2019-02-22T13:00:07.732Z,16.49
2019-02-22T13:01:07.699Z,16.20
2019-02-22T13:02:07.685Z,15.84
2019-02-22T13:03:07.678Z,15.64
2019-02-22T13:04:07.667Z,15.38
2019-02-22T13:05:07.670Z,14.81
2019-02-22T13:06:07.640Z,14.68
2019-02-22T13:07:07.632Z,14.56